createdAt,value
2019-04-23T00:03:59.567Z,98.90
2019-04-23T00:06:32.285Z,99.20
2019-04-23T00:09:20.498Z,99.00
2019-04-23T00:11:37.427Z,99.20
2019-04-23T00:14:07.103Z,99.10
2019-04-23T00:16:51.152Z,98.80
2019-04-23T00:19:04.592Z,99.00
2019-04-23T00:21:52.154Z,99.00
2019-04-23T00:25:07.186Z,98.60
2019-04-23T00:27:24.056Z,98.40
2019-04-23T00:29:46.267Z,98.40
2019-04-23T00:32:15.674Z,98.60
2019-04-23T00:34:49.608Z,98.70
2019-04-23T00:37:23.803Z,98.50
2019-04-23T00:39:47.063Z,98.50
2019-04-23T00:42:23.541Z,98.00
2019-04-23T00:44:52.800Z,97.90
2019-04-23T00:47:22.360Z,98.20
2019-04-23T00:49:54.541Z,97.40
2019-04-23T00:52:24.001Z,97.30
2019-04-23T00:54:51.886Z,97.60
2019-04-23T00:57:25.837Z,97.20
2019-04-23T00:59:53.710Z,96.90
2019-04-23T01:02:23.471Z,96.90
2019-04-23T01:04:59.696Z,96.90
2019-04-23T01:07:20.086Z,96.90
2019-04-23T01:09:59.762Z,97.10
2019-04-23T01:12:31.722Z,97.00
2019-04-23T01:14:58.843Z,96.90
2019-04-23T01:20:14.272Z,97.00
2019-04-23T01:22:14.611Z,97.00
2019-04-23T01:24:46.684Z,97.10
2019-04-23T01:27:55.898Z,97.20
2019-04-23T01:30:17.988Z,97.20
2019-04-23T01:32:44.030Z,97.70
2019-04-23T01:35:17.886Z,97.90
2019-04-23T01:37:47.747Z,98.10
2019-04-23T01:40:18.789Z,98.60
2019-04-23T01:42:58.693Z,99.00
2019-04-23T01:45:20.383Z,99.40
2019-04-23T01:47:50.020Z,99.70
2019-04-23T01:52:52.342Z,99.90
2019-04-23T01:55:21.246Z,99.90
2019-04-23T01:57:58.986Z,99.90
2019-04-23T02:00:22.418Z,99.90
2019-04-23T02:02:57.822Z,99.90
2019-04-23T02:05:28.489Z,99.90
2019-04-23T02:08:00.309Z,99.90
2019-04-23T02:13:06.489Z,99.90
2019-04-23T02:15:34.931Z,99.90
2019-04-23T02:18:08.861Z,99.90
2019-04-23T02:20:37.408Z,99.90
2019-04-23T02:23:26.583Z,99.90
2019-04-23T02:28:19.952Z,99.90
2019-04-23T02:31:13.997Z,99.90
2019-04-23T02:33:45.049Z,99.90
2019-04-23T02:43:22.269Z,99.90
2019-04-23T02:48:38.180Z,99.90
2019-04-23T02:50:54.154Z,99.90
2019-04-23T02:58:36.959Z,99.90
2019-04-23T03:06:05.878Z,99.90
2019-04-23T03:08:42.692Z,99.90
2019-04-23T03:13:51.587Z,99.90
2019-04-23T03:21:31.452Z,99.90
2019-04-23T03:24:11.127Z,99.90
2019-04-23T03:29:16.260Z,99.90
2019-04-23T03:34:46.361Z,99.90
2019-04-23T03:38:55.608Z,99.90
2019-04-23T03:41:50.353Z,99.90
2019-04-23T03:44:06.668Z,99.90
2019-04-23T03:46:36.651Z,99.90
2019-04-23T03:49:07.731Z,99.90
2019-04-23T03:51:46.785Z,99.90
2019-04-23T03:54:25.841Z,99.90
2019-04-23T03:56:56.247Z,99.90
2019-04-23T03:59:20.121Z,99.90
2019-04-23T04:01:45.447Z,99.90
2019-04-23T04:06:50.178Z,99.90
2019-04-23T04:09:28.701Z,99.90
2019-04-23T04:11:33.534Z,99.90
2019-04-23T04:16:49.109Z,99.90
2019-04-23T04:19:25.167Z,99.90
2019-04-23T04:24:36.936Z,99.90
2019-04-23T04:29:54.992Z,99.90
2019-04-23T04:35:12.626Z,99.90
2019-04-23T04:39:49.980Z,99.90
2019-04-23T04:42:12.491Z,99.90
2019-04-23T04:47:09.657Z,99.90
2019-04-23T04:49:51.641Z,99.90
2019-04-23T04:55:00.099Z,99.90
2019-04-23T04:57:20.413Z,99.90
2019-04-23T05:04:55.969Z,99.90
2019-04-23T05:07:18.674Z,99.90
2019-04-23T05:10:08.041Z,99.90
2019-04-23T05:12:18.938Z,99.90
2019-04-23T05:17:27.592Z,99.90
2019-04-23T05:19:51.159Z,99.90
2019-04-23T05:22:22.509Z,99.90
2019-04-23T05:24:48.349Z,99.90
2019-04-23T05:27:19.296Z,99.90
2019-04-23T05:29:55.937Z,99.90
2019-04-23T05:32:19.359Z,99.90
2019-04-23T05:34:50.089Z,99.90
2019-04-23T05:37:20.523Z,99.90
2019-04-23T05:40:14.475Z,99.90
2019-04-23T05:42:27.849Z,99.90
2019-04-23T05:44:54.304Z,99.90
2019-04-23T05:47:27.374Z,99.90
2019-04-23T05:52:29.777Z,99.90
2019-04-23T05:55:01.505Z,99.90
2019-04-23T05:57:20.660Z,99.90
2019-04-23T05:59:54.846Z,99.90
2019-04-23T06:02:26.673Z,99.90
2019-04-23T06:04:57.178Z,99.90
2019-04-23T06:07:35.781Z,99.90
2019-04-23T06:10:03.237Z,99.90
2019-04-23T06:12:31.424Z,99.90
2019-04-23T06:14:57.564Z,99.90
2019-04-23T06:17:24.970Z,99.90
2019-04-23T06:20:02.860Z,99.90
2019-04-23T06:22:38.973Z,99.90
2019-04-23T06:25:30.753Z,99.90
2019-04-23T06:27:32.305Z,99.90
2019-04-23T06:30:03.031Z,99.90
2019-04-23T06:32:35.801Z,99.90
2019-04-23T06:35:08.686Z,99.90
2019-04-23T06:37:49.593Z,99.90
2019-04-23T06:40:12.123Z,99.90
2019-04-23T06:42:37.585Z,99.90
2019-04-23T06:45:08.054Z,99.90
2019-04-23T06:47:36.118Z,99.90
2019-04-23T06:50:04.986Z,99.90
2019-04-23T06:52:31.847Z,99.90
2019-04-23T06:55:13.460Z,99.90
2019-04-23T06:57:33.584Z,99.90
2019-04-23T07:00:17.205Z,99.90
2019-04-23T07:02:44.509Z,99.90
2019-04-23T07:05:21.117Z,99.70
2019-04-23T07:07:50.001Z,99.50
2019-04-23T07:15:32.174Z,99.20
2019-04-23T07:17:46.605Z,98.90
2019-04-23T07:22:53.029Z,98.50
2019-04-23T07:27:51.222Z,98.30
2019-04-23T07:32:49.731Z,98.40
2019-04-23T07:35:15.841Z,98.20
2019-04-23T07:38:02.979Z,97.60
2019-04-23T07:40:35.147Z,97.60
2019-04-23T07:43:08.043Z,97.10
2019-04-23T07:46:02.334Z,96.10
2019-04-23T07:48:28.878Z,95.60
2019-04-23T07:50:59.883Z,95.20
2019-04-23T07:53:42.866Z,94.60
2019-04-23T07:56:08.704Z,93.80
2019-04-23T08:01:03.685Z,93.50
2019-04-23T08:06:10.184Z,92.90
2019-04-23T08:08:36.205Z,93.00
2019-04-23T08:11:30.622Z,93.60
2019-04-23T08:13:58.756Z,93.40
2019-04-23T08:16:25.838Z,93.60
2019-04-23T08:29:26.785Z,94.70
2019-04-23T08:34:38.673Z,95.20
2019-04-23T08:37:05.146Z,95.60
2019-04-23T08:39:41.566Z,95.40
2019-04-23T08:42:28.667Z,95.40
2019-04-23T08:54:58.375Z,97.20
2019-04-23T08:57:19.304Z,97.70
2019-04-23T09:04:55.326Z,99.20
2019-04-23T09:07:22.086Z,99.30
2019-04-23T09:09:50.883Z,99.70
2019-04-23T09:12:24.155Z,99.80
2019-04-23T09:14:50.983Z,99.90
2019-04-23T09:20:06.524Z,99.90
2019-04-23T09:24:55.706Z,99.90
2019-04-23T09:27:27.449Z,99.90
2019-04-23T09:38:03.673Z,99.90
2019-04-23T09:41:04.553Z,99.90
2019-04-23T09:43:43.328Z,99.90
2019-04-23T09:46:12.362Z,99.90
2019-04-23T09:48:44.272Z,99.90
2019-04-23T09:51:09.948Z,99.90
2019-04-23T09:53:46.892Z,99.90
2019-04-23T09:56:07.318Z,99.90
2019-04-23T09:58:46.330Z,99.90
2019-04-23T10:03:47.933Z,99.90
2019-04-23T10:06:14.511Z,99.80
2019-04-23T10:08:46.435Z,99.60
2019-04-23T10:11:09.652Z,99.90
2019-04-23T10:13:40.469Z,99.90
2019-04-23T10:16:12.254Z,99.90
2019-04-23T10:18:41.463Z,99.90
2019-04-23T10:21:11.283Z,99.80
2019-04-23T10:23:41.246Z,99.50
2019-04-23T10:26:10.290Z,99.30
2019-04-23T10:28:42.078Z,99.00
2019-04-23T10:31:12.619Z,99.90
2019-04-23T10:33:42.091Z,99.90
2019-04-23T10:36:15.143Z,99.90
2019-04-23T10:38:53.998Z,99.90
2019-04-23T10:41:15.984Z,99.90
2019-04-23T10:43:48.808Z,99.90
2019-04-23T10:47:02.720Z,99.90
2019-04-23T10:49:51.763Z,99.90
2019-04-23T10:52:16.871Z,99.90
2019-04-23T10:57:03.896Z,99.90
2019-04-23T10:59:47.235Z,99.90
2019-04-23T11:02:34.970Z,99.90
2019-04-23T11:04:54.191Z,99.90
2019-04-23T11:07:28.458Z,99.90
2019-04-23T11:09:55.697Z,99.90
2019-04-23T11:12:32.072Z,99.90
2019-04-23T11:14:58.425Z,99.90
2019-04-23T11:17:33.125Z,99.90
2019-04-23T11:20:01.388Z,99.90
2019-04-23T11:22:42.484Z,99.90
2019-04-23T11:25:04.199Z,99.90
2019-04-23T11:27:40.577Z,99.90
2019-04-23T11:35:14.311Z,99.90
2019-04-23T11:37:41.185Z,99.90
2019-04-23T11:40:01.088Z,99.90
2019-04-23T11:42:38.069Z,99.90
2019-04-23T11:45:07.003Z,99.90
2019-04-23T11:48:04.873Z,99.90
2019-04-23T11:52:41.551Z,99.90
2019-04-23T11:55:22.811Z,99.90
2019-04-23T11:57:40.767Z,99.90
2019-04-23T12:00:05.572Z,99.90
2019-04-23T12:02:49.642Z,99.90
2019-04-23T12:05:41.583Z,99.90
2019-04-23T12:08:23.283Z,99.90
2019-04-23T12:10:51.919Z,99.90
2019-04-23T12:13:20.406Z,99.90
2019-04-23T12:15:51.728Z,99.90
2019-04-23T12:18:24.051Z,99.90
2019-04-23T12:20:41.228Z,99.90
2019-04-23T12:23:31.660Z,99.90
2019-04-23T12:26:13.549Z,99.90
2019-04-23T12:28:23.526Z,99.90
2019-04-23T12:30:50.521Z,99.90
2019-04-23T12:33:30.166Z,99.90
2019-04-23T12:35:49.982Z,99.90
2019-04-23T12:43:28.606Z,99.90
2019-04-23T12:45:47.330Z,99.90
2019-04-23T12:56:06.987Z,99.90
2019-04-23T13:01:05.524Z,99.90
2019-04-23T13:03:29.861Z,99.90
2019-04-23T13:05:57.428Z,99.90
2019-04-23T13:11:21.554Z,99.90
2019-04-23T13:13:43.514Z,99.90
2019-04-23T13:16:25.489Z,99.90
2019-04-23T13:18:38.129Z,99.90
2019-04-23T13:21:15.761Z,99.90
2019-04-23T13:23:34.553Z,99.90
2019-04-23T13:25:59.826Z,99.90
2019-04-23T13:28:37.717Z,99.90
2019-04-23T13:36:17.711Z,99.90
2019-04-23T13:38:41.721Z,99.90
2019-04-23T13:41:17.422Z,99.90
2019-04-23T13:43:47.867Z,99.90
2019-04-23T13:46:13.204Z,99.90
2019-04-23T13:48:40.049Z,99.90
2019-04-23T13:51:21.126Z,99.90
2019-04-23T13:59:07.001Z,99.90
2019-04-23T14:01:25.724Z,99.90
2019-04-23T14:03:48.047Z,99.90
2019-04-23T14:08:53.671Z,99.90
2019-04-23T14:11:23.195Z,99.90
2019-04-23T14:14:05.829Z,99.90
2019-04-23T14:16:33.087Z,99.90
2019-04-23T14:24:08.342Z,99.90
2019-04-23T14:26:33.953Z,99.90
2019-04-23T14:28:55.282Z,99.90
2019-04-23T14:31:21.875Z,99.90
2019-04-23T14:39:20.046Z,99.90
2019-04-23T14:41:26.161Z,99.90
2019-04-23T14:44:10.468Z,99.90
2019-04-23T14:49:11.224Z,99.90
2019-04-23T14:54:15.788Z,99.90
2019-04-23T14:56:59.361Z,99.90
2019-04-23T14:59:10.619Z,99.90
2019-04-23T15:01:44.143Z,99.90
2019-04-23T15:04:10.977Z,99.90
2019-04-23T15:06:50.794Z,99.90
2019-04-23T15:09:24.124Z,99.90
2019-04-23T15:11:57.605Z,99.90
2019-04-23T15:14:17.656Z,99.90
2019-04-23T15:16:51.465Z,99.90
2019-04-23T15:19:28.257Z,99.90
2019-04-23T15:24:30.493Z,99.90
2019-04-23T15:29:08.654Z,99.90
2019-04-23T15:31:58.936Z,99.90
2019-04-23T15:42:08.835Z,99.90
2019-04-23T15:44:41.831Z,99.90
2019-04-23T15:47:01.930Z,99.90
2019-04-23T15:49:28.285Z,99.90
2019-04-23T15:52:17.078Z,99.90
2019-04-23T15:54:35.414Z,99.90
2019-04-23T15:59:33.238Z,99.90
2019-04-23T16:01:42.529Z,99.90
2019-04-23T16:04:05.356Z,99.90
2019-04-23T16:06:36.881Z,99.90
2019-04-23T16:09:33.417Z,99.90
2019-04-23T16:11:59.628Z,99.90
2019-04-23T16:14:42.788Z,99.90
2019-04-23T16:17:14.257Z,99.90
2019-04-23T16:19:59.678Z,99.90
2019-04-23T16:22:20.310Z,99.90
2019-04-23T16:25:00.954Z,99.90
2019-04-23T16:27:15.029Z,99.90
2019-04-23T16:32:52.468Z,99.90
2019-04-23T16:35:29.257Z,99.90
2019-04-23T16:37:55.569Z,99.90
2019-04-23T16:40:23.628Z,99.90
2019-04-23T16:42:53.913Z,99.90
2019-04-23T16:45:22.998Z,99.90
2019-04-23T16:47:49.352Z,99.90
2019-04-23T16:50:22.084Z,99.90
2019-04-23T16:52:56.871Z,99.90
2019-04-23T16:55:22.349Z,99.90
2019-04-23T16:57:57.398Z,99.90
2019-04-23T17:00:38.085Z,99.90
2019-04-23T17:02:59.891Z,99.90
2019-04-23T17:05:25.032Z,99.90
2019-04-23T17:08:24.832Z,99.90
2019-04-23T17:13:06.694Z,99.90
2019-04-23T17:15:34.637Z,99.90
2019-04-23T17:17:55.739Z,99.90
2019-04-23T17:20:31.961Z,99.90
2019-04-23T17:23:07.434Z,99.90
2019-04-23T17:25:26.533Z,99.90
2019-04-23T17:28:09.003Z,99.90
2019-04-23T17:30:33.658Z,99.90
2019-04-23T17:33:13.854Z,99.90
2019-04-23T17:36:07.414Z,99.90
2019-04-23T17:38:32.281Z,99.90
2019-04-23T17:41:05.879Z,99.90
2019-04-23T17:43:42.330Z,99.90
2019-04-23T17:46:05.421Z,99.90
2019-04-23T17:48:41.952Z,99.90
2019-04-23T17:53:49.527Z,99.90
2019-04-23T17:56:50.854Z,99.90
2019-04-23T18:03:55.591Z,99.90
2019-04-23T18:09:05.931Z,99.90
2019-04-23T18:13:57.918Z,99.90
2019-04-23T18:19:03.311Z,99.90
2019-04-23T18:27:05.093Z,99.90
2019-04-23T18:29:57.543Z,99.90
2019-04-23T18:32:18.303Z,99.90
2019-04-23T18:34:59.695Z,99.90
2019-04-23T18:37:17.940Z,99.90
2019-04-23T18:39:43.768Z,99.90
2019-04-23T18:42:27.431Z,99.90
2019-04-23T18:44:50.154Z,99.90
2019-04-23T18:47:26.085Z,99.90
2019-04-23T18:49:45.305Z,99.90
2019-04-23T18:52:26.017Z,99.90
2019-04-23T18:55:06.752Z,99.90
2019-04-23T19:02:37.261Z,99.90
2019-04-23T19:07:46.814Z,99.90
2019-04-23T19:10:17.097Z,99.90
2019-04-23T19:12:42.802Z,99.90
2019-04-23T19:17:50.499Z,99.90
2019-04-23T19:25:14.430Z,99.90
2019-04-23T19:27:50.288Z,99.90
2019-04-23T19:30:32.400Z,99.90
2019-04-23T19:32:48.913Z,99.90
2019-04-23T19:35:44.252Z,99.90
2019-04-23T19:37:55.435Z,99.90
2019-04-23T19:40:24.409Z,99.90
2019-04-23T19:42:55.286Z,99.90
2019-04-23T19:45:20.566Z,99.90
2019-04-23T19:48:07.337Z,99.90
2019-04-23T19:50:24.019Z,99.90
2019-04-23T19:55:24.220Z,99.90
2019-04-23T19:57:54.980Z,99.90
2019-04-23T20:00:33.864Z,99.90
2019-04-23T20:05:26.439Z,99.90
2019-04-23T20:08:08.741Z,99.90
2019-04-23T20:10:30.348Z,99.90
2019-04-23T20:12:53.972Z,99.90
2019-04-23T20:15:30.485Z,99.90
2019-04-23T20:17:54.009Z,99.90
2019-04-23T20:20:34.959Z,99.90
2019-04-23T20:28:15.379Z,99.90
2019-04-23T20:31:03.520Z,99.90
2019-04-23T20:34:09.099Z,99.90
2019-04-23T20:36:13.987Z,99.90
2019-04-23T20:38:48.592Z,99.90
2019-04-23T20:41:27.403Z,99.90
2019-04-23T20:44:01.893Z,99.90
2019-04-23T20:46:36.198Z,99.90
2019-04-23T20:51:24.504Z,99.90
2019-04-23T20:53:59.358Z,99.90
2019-04-23T20:56:30.085Z,99.90
2019-04-23T20:59:00.243Z,99.90
2019-04-23T21:01:46.831Z,99.90
2019-04-23T21:04:17.968Z,99.90
2019-04-23T21:06:54.596Z,99.90
2019-04-23T21:11:48.337Z,99.90
2019-04-23T21:14:31.928Z,99.90
2019-04-23T21:16:52.361Z,99.90
2019-04-23T21:19:20.903Z,99.90
2019-04-23T21:21:53.742Z,99.90
2019-04-23T21:24:17.318Z,99.90
2019-04-23T21:26:50.340Z,99.90
2019-04-23T21:29:13.521Z,99.90
2019-04-23T21:31:47.733Z,99.90
2019-04-23T21:34:18.019Z,99.90
2019-04-23T21:36:48.225Z,99.90
2019-04-23T21:39:28.274Z,99.90
2019-04-23T21:42:24.130Z,99.90
2019-04-23T21:44:46.907Z,99.90
2019-04-23T21:47:07.744Z,99.90
2019-04-23T21:52:17.978Z,99.90
2019-04-23T21:54:38.993Z,99.90
2019-04-23T21:57:00.522Z,99.90
2019-04-23T21:59:39.086Z,99.90
2019-04-23T22:02:06.804Z,99.90
2019-04-23T22:04:40.078Z,99.90
2019-04-23T22:07:29.383Z,99.90
2019-04-23T22:09:48.319Z,99.90
2019-04-23T22:14:39.910Z,99.90
2019-04-23T22:17:11.558Z,99.90
2019-04-23T22:19:44.956Z,99.90
2019-04-23T22:22:02.081Z,99.90
2019-04-23T22:24:48.625Z,99.90
2019-04-23T22:27:12.751Z,99.90
2019-04-23T22:29:42.041Z,99.90
2019-04-23T22:32:12.355Z,99.90
2019-04-23T22:34:50.270Z,99.90
2019-04-23T22:37:14.418Z,99.90
2019-04-23T22:39:45.671Z,99.90
2019-04-23T22:42:26.672Z,99.90
2019-04-23T22:44:57.637Z,99.90
2019-04-23T22:47:06.124Z,99.90
2019-04-23T22:49:53.140Z,99.90
2019-04-23T22:54:57.142Z,99.90
2019-04-23T22:57:13.195Z,99.90
2019-04-23T23:00:04.538Z,99.90
2019-04-23T23:02:51.897Z,99.90
2019-04-23T23:05:12.291Z,99.90
2019-04-23T23:07:47.730Z,99.90
2019-04-23T23:10:12.557Z,99.90
2019-04-23T23:12:52.926Z,99.90
2019-04-23T23:17:51.185Z,99.90
2019-04-23T23:20:23.744Z,99.90
2019-04-23T23:23:06.539Z,99.90
2019-04-23T23:25:19.393Z,99.90
2019-04-23T23:27:51.786Z,99.90
2019-04-23T23:32:51.243Z,99.90
2019-04-23T23:35:24.528Z,99.90
2019-04-23T23:37:54.066Z,99.90
2019-04-23T23:40:21.885Z,99.90
2019-04-23T23:43:02.371Z,99.90
2019-04-23T23:45:36.809Z,99.90
2019-04-23T23:47:51.585Z,99.90
2019-04-23T23:52:57.013Z,99.90
2019-04-23T23:55:25.027Z,99.90
2019-04-23T23:58:04.735Z,99.90
